sensor_id;sensor_type;location;lat;lon;timestamp;temperature;humidity
60027;DHT22;45891;53.006;6.512;2023-07-16T00:00:34;17.50;98.90
60027;DHT22;45891;53.006;6.512;2023-07-16T00:03:01;17.50;98.90
60027;DHT22;45891;53.006;6.512;2023-07-16T00:05:27;17.50;98.90
60027;DHT22;45891;53.006;6.512;2023-07-16T00:07:53;17.40;98.90
60027;DHT22;45891;53.006;6.512;2023-07-16T00:10:19;17.40;99.00
60027;DHT22;45891;53.006;6.512;2023-07-16T00:12:45;17.40;99.00
60027;DHT22;45891;53.006;6.512;2023-07-16T00:15:11;17.30;99.10
60027;DHT22;45891;53.006;6.512;2023-07-16T00:17:37;17.30;99.20
60027;DHT22;45891;53.006;6.512;2023-07-16T00:20:04;17.30;99.20
60027;DHT22;45891;53.006;6.512;2023-07-16T00:22:31;17.30;99.30
60027;DHT22;45891;53.006;6.512;2023-07-16T00:24:57;17.20;99.40
60027;DHT22;45891;53.006;6.512;2023-07-16T00:27:24;17.20;99.40
60027;DHT22;45891;53.006;6.512;2023-07-16T00:29:50;17.20;99.50
60027;DHT22;45891;53.006;6.512;2023-07-16T00:32:17;17.10;99.90
60027;DHT22;45891;53.006;6.512;2023-07-16T00:34:43;17.10;99.70
60027;DHT22;45891;53.006;6.512;2023-07-16T00:37:09;17.10;99.70
60027;DHT22;45891;53.006;6.512;2023-07-16T00:39:35;17.10;99.90
60027;DHT22;45891;53.006;6.512;2023-07-16T00:42:01;17.10;99.90
60027;DHT22;45891;53.006;6.512;2023-07-16T00:44:28;17.10;99.90
60027;DHT22;45891;53.006;6.512;2023-07-16T00:46:54;17.10;99.90
60027;DHT22;45891;53.006;6.512;2023-07-16T00:49:20;17.10;99.90
60027;DHT22;45891;53.006;6.512;2023-07-16T00:51:46;17.10;99.90
60027;DHT22;45891;53.006;6.512;2023-07-16T00:54:13;17.10;99.90
60027;DHT22;45891;53.006;6.512;2023-07-16T00:56:39;17.10;99.90
60027;DHT22;45891;53.006;6.512;2023-07-16T00:59:05;17.20;99.90
60027;DHT22;45891;53.006;6.512;2023-07-16T01:01:31;17.10;99.90
60027;DHT22;45891;53.006;6.512;2023-07-16T01:03:58;17.10;99.90
60027;DHT22;45891;53.006;6.512;2023-07-16T01:06:49;17.10;99.90
60027;DHT22;45891;53.006;6.512;2023-07-16T01:09:18;17.20;99.90
60027;DHT22;45891;53.006;6.512;2023-07-16T01:11:45;17.10;99.90
60027;DHT22;45891;53.006;6.512;2023-07-16T01:14:17;17.10;99.90
60027;DHT22;45891;53.006;6.512;2023-07-16T01:16:43;17.10;99.90
60027;DHT22;45891;53.006;6.512;2023-07-16T01:19:10;17.00;99.90
60027;DHT22;45891;53.006;6.512;2023-07-16T01:21:56;17.00;99.90
60027;DHT22;45891;53.006;6.512;2023-07-16T01:29:44;16.80;99.90
60027;DHT22;45891;53.006;6.512;2023-07-16T01:32:13;16.80;99.90
60027;DHT22;45891;53.006;6.512;2023-07-16T01:34:40;16.80;99.90
60027;DHT22;45891;53.006;6.512;2023-07-16T01:37:07;16.80;99.90
60027;DHT22;45891;53.006;6.512;2023-07-16T01:39:33;16.80;99.90
60027;DHT22;45891;53.006;6.512;2023-07-16T01:42:00;16.70;99.90
60027;DHT22;45891;53.006;6.512;2023-07-16T01:44:26;16.70;99.90
60027;DHT22;45891;53.006;6.512;2023-07-16T01:49:57;16.70;99.90
60027;DHT22;45891;53.006;6.512;2023-07-16T01:52:23;16.70;99.90
60027;DHT22;45891;53.006;6.512;2023-07-16T01:54:49;16.70;99.90
60027;DHT22;45891;53.006;6.512;2023-07-16T01:57:15;16.70;99.90
60027;DHT22;45891;53.006;6.512;2023-07-16T01:59:41;16.70;99.90
60027;DHT22;45891;53.006;6.512;2023-07-16T02:02:08;16.70;99.90
60027;DHT22;45891;53.006;6.512;2023-07-16T02:04:34;16.70;99.90
60027;DHT22;45891;53.006;6.512;2023-07-16T02:07:00;16.70;99.90
60027;DHT22;45891;53.006;6.512;2023-07-16T02:09:27;16.70;99.90
60027;DHT22;45891;53.006;6.512;2023-07-16T02:11:53;16.70;99.90
60027;DHT22;45891;53.006;6.512;2023-07-16T02:14:19;16.70;99.90
60027;DHT22;45891;53.006;6.512;2023-07-16T02:16:46;16.80;99.90
60027;DHT22;45891;53.006;6.512;2023-07-16T02:19:12;16.80;99.90
60027;DHT22;45891;53.006;6.512;2023-07-16T02:21:38;16.90;99.90
60027;DHT22;45891;53.006;6.512;2023-07-16T02:24:04;16.90;99.90
60027;DHT22;45891;53.006;6.512;2023-07-16T02:26:30;16.90;99.90
60027;DHT22;45891;53.006;6.512;2023-07-16T02:28:56;17.00;99.90
60027;DHT22;45891;53.006;6.512;2023-07-16T02:31:23;17.00;99.90
60027;DHT22;45891;53.006;6.512;2023-07-16T02:33:49;17.00;99.90
60027;DHT22;45891;53.006;6.512;2023-07-16T02:36:15;17.00;99.90
60027;DHT22;45891;53.006;6.512;2023-07-16T02:38:42;17.00;99.90
60027;DHT22;45891;53.006;6.512;2023-07-16T02:41:08;17.10;99.90
60027;DHT22;45891;53.006;6.512;2023-07-16T02:43:34;17.00;99.90
60027;DHT22;45891;53.006;6.512;2023-07-16T02:46:00;17.00;99.90
60027;DHT22;45891;53.006;6.512;2023-07-16T02:48:26;17.00;99.90
60027;DHT22;45891;53.006;6.512;2023-07-16T02:50:52;17.00;99.90
60027;DHT22;45891;53.006;6.512;2023-07-16T02:53:18;17.10;99.90
60027;DHT22;45891;53.006;6.512;2023-07-16T02:55:45;17.10;99.90
60027;DHT22;45891;53.006;6.512;2023-07-16T02:58:12;17.00;99.90
60027;DHT22;45891;53.006;6.512;2023-07-16T03:00:38;17.00;99.90
60027;DHT22;45891;53.006;6.512;2023-07-16T03:03:04;17.00;99.90
60027;DHT22;45891;53.006;6.512;2023-07-16T03:05:30;17.00;99.90
60027;DHT22;45891;53.006;6.512;2023-07-16T03:07:57;17.00;99.90
60027;DHT22;45891;53.006;6.512;2023-07-16T03:10:23;17.00;99.90
60027;DHT22;45891;53.006;6.512;2023-07-16T03:12:49;16.90;99.90
60027;DHT22;45891;53.006;6.512;2023-07-16T03:15:15;16.90;99.90
60027;DHT22;45891;53.006;6.512;2023-07-16T03:17:41;16.90;99.90
60027;DHT22;45891;53.006;6.512;2023-07-16T03:20:08;16.90;99.90
60027;DHT22;45891;53.006;6.512;2023-07-16T03:22:34;16.80;99.90
60027;DHT22;45891;53.006;6.512;2023-07-16T03:25:00;16.80;99.90
60027;DHT22;45891;53.006;6.512;2023-07-16T03:27:26;16.80;99.90
60027;DHT22;45891;53.006;6.512;2023-07-16T03:29:52;16.80;99.90
60027;DHT22;45891;53.006;6.512;2023-07-16T03:32:18;16.80;99.90
60027;DHT22;45891;53.006;6.512;2023-07-16T03:34:44;16.80;99.90
60027;DHT22;45891;53.006;6.512;2023-07-16T03:37:10;16.80;99.90
60027;DHT22;45891;53.006;6.512;2023-07-16T03:39:37;16.70;99.90
60027;DHT22;45891;53.006;6.512;2023-07-16T03:42:03;16.70;99.90
60027;DHT22;45891;53.006;6.512;2023-07-16T03:44:29;16.70;99.90
60027;DHT22;45891;53.006;6.512;2023-07-16T03:46:55;16.70;99.90
60027;DHT22;45891;53.006;6.512;2023-07-16T03:49:22;16.70;99.90
60027;DHT22;45891;53.006;6.512;2023-07-16T03:51:48;16.70;99.90
60027;DHT22;45891;53.006;6.512;2023-07-16T03:54:14;16.70;99.90
60027;DHT22;45891;53.006;6.512;2023-07-16T03:56:40;16.70;99.90
60027;DHT22;45891;53.006;6.512;2023-07-16T03:59:06;16.70;99.90
60027;DHT22;45891;53.006;6.512;2023-07-16T04:01:32;16.70;99.90
60027;DHT22;45891;53.006;6.512;2023-07-16T04:03:58;16.70;99.90
60027;DHT22;45891;53.006;6.512;2023-07-16T04:06:24;16.70;99.90
60027;DHT22;45891;53.006;6.512;2023-07-16T04:08:50;16.60;99.90
60027;DHT22;45891;53.006;6.512;2023-07-16T04:11:17;16.70;99.90
60027;DHT22;45891;53.006;6.512;2023-07-16T04:13:43;16.70;99.90
60027;DHT22;45891;53.006;6.512;2023-07-16T04:16:09;16.70;99.90
60027;DHT22;45891;53.006;6.512;2023-07-16T04:18:35;16.70;99.90
60027;DHT22;45891;53.006;6.512;2023-07-16T04:21:01;16.70;99.90
60027;DHT22;45891;53.006;6.512;2023-07-16T04:23:27;16.80;99.90
60027;DHT22;45891;53.006;6.512;2023-07-16T04:25:54;16.80;99.90
60027;DHT22;45891;53.006;6.512;2023-07-16T04:28:21;16.80;99.90
60027;DHT22;45891;53.006;6.512;2023-07-16T04:30:47;16.80;99.90
60027;DHT22;45891;53.006;6.512;2023-07-16T04:33:13;16.80;99.90
60027;DHT22;45891;53.006;6.512;2023-07-16T04:35:39;16.90;99.90
60027;DHT22;45891;53.006;6.512;2023-07-16T04:38:06;16.90;99.90
60027;DHT22;45891;53.006;6.512;2023-07-16T04:40:33;16.90;99.90
60027;DHT22;45891;53.006;6.512;2023-07-16T04:42:59;17.00;99.90
60027;DHT22;45891;53.006;6.512;2023-07-16T04:45:26;17.00;99.90
60027;DHT22;45891;53.006;6.512;2023-07-16T04:47:52;17.10;99.90
60027;DHT22;45891;53.006;6.512;2023-07-16T04:50:18;17.10;99.90
60027;DHT22;45891;53.006;6.512;2023-07-16T04:52:44;17.10;99.90
60027;DHT22;45891;53.006;6.512;2023-07-16T04:55:10;17.20;99.90
60027;DHT22;45891;53.006;6.512;2023-07-16T04:57:38;17.20;99.90
60027;DHT22;45891;53.006;6.512;2023-07-16T05:00:04;17.20;99.90
60027;DHT22;45891;53.006;6.512;2023-07-16T05:02:32;17.30;99.90
60027;DHT22;45891;53.006;6.512;2023-07-16T05:04:58;17.30;99.90
60027;DHT22;45891;53.006;6.512;2023-07-16T05:07:25;17.30;99.90
60027;DHT22;45891;53.006;6.512;2023-07-16T05:09:51;17.30;99.90
60027;DHT22;45891;53.006;6.512;2023-07-16T05:12:17;17.30;99.90
60027;DHT22;45891;53.006;6.512;2023-07-16T05:14:45;17.40;99.90
60027;DHT22;45891;53.006;6.512;2023-07-16T05:17:12;17.40;99.90
60027;DHT22;45891;53.006;6.512;2023-07-16T05:19:38;17.40;99.90
60027;DHT22;45891;53.006;6.512;2023-07-16T05:22:05;17.40;99.90
60027;DHT22;45891;53.006;6.512;2023-07-16T05:24:31;17.50;99.90
60027;DHT22;45891;53.006;6.512;2023-07-16T05:26:58;17.50;99.90
60027;DHT22;45891;53.006;6.512;2023-07-16T05:29:24;17.60;99.90
60027;DHT22;45891;53.006;6.512;2023-07-16T05:31:50;17.60;99.90
60027;DHT22;45891;53.006;6.512;2023-07-16T05:34:16;17.70;99.90
60027;DHT22;45891;53.006;6.512;2023-07-16T05:36:42;17.70;99.90
60027;DHT22;45891;53.006;6.512;2023-07-16T05:39:10;17.80;99.90
60027;DHT22;45891;53.006;6.512;2023-07-16T05:41:41;17.90;99.90
60027;DHT22;45891;53.006;6.512;2023-07-16T05:44:07;17.90;99.90
60027;DHT22;45891;53.006;6.512;2023-07-16T05:46:34;17.90;99.90
60027;DHT22;45891;53.006;6.512;2023-07-16T05:49:00;18.00;99.90
60027;DHT22;45891;53.006;6.512;2023-07-16T05:51:26;18.20;99.90
60027;DHT22;45891;53.006;6.512;2023-07-16T05:53:52;18.30;99.90
60027;DHT22;45891;53.006;6.512;2023-07-16T05:56:18;18.40;99.90
60027;DHT22;45891;53.006;6.512;2023-07-16T05:58:45;18.60;99.90
60027;DHT22;45891;53.006;6.512;2023-07-16T06:01:11;18.70;99.90
60027;DHT22;45891;53.006;6.512;2023-07-16T06:03:37;18.70;99.90
60027;DHT22;45891;53.006;6.512;2023-07-16T06:06:03;18.80;99.90
60027;DHT22;45891;53.006;6.512;2023-07-16T06:08:29;18.90;99.90
60027;DHT22;45891;53.006;6.512;2023-07-16T06:10:55;19.00;99.90
60027;DHT22;45891;53.006;6.512;2023-07-16T06:13:21;19.00;99.90
60027;DHT22;45891;53.006;6.512;2023-07-16T06:15:47;18.80;99.90
60027;DHT22;45891;53.006;6.512;2023-07-16T06:18:13;18.60;99.90
60027;DHT22;45891;53.006;6.512;2023-07-16T06:20:46;18.70;99.90
60027;DHT22;45891;53.006;6.512;2023-07-16T06:23:12;19.20;99.90
60027;DHT22;45891;53.006;6.512;2023-07-16T06:25:38;19.30;99.90
60027;DHT22;45891;53.006;6.512;2023-07-16T06:28:10;19.40;99.90
60027;DHT22;45891;53.006;6.512;2023-07-16T06:30:37;19.30;99.90
60027;DHT22;45891;53.006;6.512;2023-07-16T06:33:03;19.40;99.90
60027;DHT22;45891;53.006;6.512;2023-07-16T06:35:29;19.20;99.90
60027;DHT22;45891;53.006;6.512;2023-07-16T06:37:55;19.10;99.90
60027;DHT22;45891;53.006;6.512;2023-07-16T06:40:22;19.10;99.90
60027;DHT22;45891;53.006;6.512;2023-07-16T06:42:48;19.20;99.90
60027;DHT22;45891;53.006;6.512;2023-07-16T06:45:14;19.10;99.90
60027;DHT22;45891;53.006;6.512;2023-07-16T06:47:40;19.20;99.90
60027;DHT22;45891;53.006;6.512;2023-07-16T06:50:06;19.20;99.90
60027;DHT22;45891;53.006;6.512;2023-07-16T06:52:33;19.40;99.90
60027;DHT22;45891;53.006;6.512;2023-07-16T06:54:59;19.50;99.60
60027;DHT22;45891;53.006;6.512;2023-07-16T06:57:25;19.20;99.70
60027;DHT22;45891;53.006;6.512;2023-07-16T06:59:51;18.90;99.90
60027;DHT22;45891;53.006;6.512;2023-07-16T07:02:18;18.80;99.90
60027;DHT22;45891;53.006;6.512;2023-07-16T07:04:45;18.80;99.90
60027;DHT22;45891;53.006;6.512;2023-07-16T07:07:11;18.80;99.90
60027;DHT22;45891;53.006;6.512;2023-07-16T07:09:37;18.90;99.90
60027;DHT22;45891;53.006;6.512;2023-07-16T07:12:03;19.20;99.90
60027;DHT22;45891;53.006;6.512;2023-07-16T07:14:33;19.40;99.90
60027;DHT22;45891;53.006;6.512;2023-07-16T07:16:59;19.60;99.40
60027;DHT22;45891;53.006;6.512;2023-07-16T07:19:25;19.40;99.10
60027;DHT22;45891;53.006;6.512;2023-07-16T07:21:52;19.30;99.50
60027;DHT22;45891;53.006;6.512;2023-07-16T07:24:18;19.30;99.50
60027;DHT22;45891;53.006;6.512;2023-07-16T07:26:44;19.50;99.30
60027;DHT22;45891;53.006;6.512;2023-07-16T07:29:10;19.60;99.20
60027;DHT22;45891;53.006;6.512;2023-07-16T07:31:36;19.70;99.30
60027;DHT22;45891;53.006;6.512;2023-07-16T07:34:02;19.70;98.50
60027;DHT22;45891;53.006;6.512;2023-07-16T07:36:29;19.60;98.90
60027;DHT22;45891;53.006;6.512;2023-07-16T07:38:55;19.70;98.80
60027;DHT22;45891;53.006;6.512;2023-07-16T07:41:21;19.70;98.60
60027;DHT22;45891;53.006;6.512;2023-07-16T07:43:47;19.80;98.60
60027;DHT22;45891;53.006;6.512;2023-07-16T07:46:13;20.00;98.40
60027;DHT22;45891;53.006;6.512;2023-07-16T07:48:39;19.90;98.00
60027;DHT22;45891;53.006;6.512;2023-07-16T07:51:05;19.80;98.00
60027;DHT22;45891;53.006;6.512;2023-07-16T07:53:32;19.80;98.30
60027;DHT22;45891;53.006;6.512;2023-07-16T07:55:58;19.80;98.20
60027;DHT22;45891;53.006;6.512;2023-07-16T07:58:24;19.60;98.30
60027;DHT22;45891;53.006;6.512;2023-07-16T08:00:50;19.60;98.40
60027;DHT22;45891;53.006;6.512;2023-07-16T08:03:16;19.70;98.20
60027;DHT22;45891;53.006;6.512;2023-07-16T08:05:42;19.70;98.30
60027;DHT22;45891;53.006;6.512;2023-07-16T08:08:08;19.60;98.10
60027;DHT22;45891;53.006;6.512;2023-07-16T08:10:35;19.60;98.30
60027;DHT22;45891;53.006;6.512;2023-07-16T08:13:02;19.70;98.30
60027;DHT22;45891;53.006;6.512;2023-07-16T08:15:28;19.60;98.10
60027;DHT22;45891;53.006;6.512;2023-07-16T08:17:54;19.70;98.30
60027;DHT22;45891;53.006;6.512;2023-07-16T08:20:22;19.90;98.40
60027;DHT22;45891;53.006;6.512;2023-07-16T08:22:48;20.10;98.20
60027;DHT22;45891;53.006;6.512;2023-07-16T08:25:14;20.10;98.10
60027;DHT22;45891;53.006;6.512;2023-07-16T08:27:40;20.00;97.70
60027;DHT22;45891;53.006;6.512;2023-07-16T08:30:07;20.20;97.80
60027;DHT22;45891;53.006;6.512;2023-07-16T08:32:33;20.40;97.70
60027;DHT22;45891;53.006;6.512;2023-07-16T08:34:59;20.40;97.90
60027;DHT22;45891;53.006;6.512;2023-07-16T08:37:25;20.40;97.80
60027;DHT22;45891;53.006;6.512;2023-07-16T08:39:52;20.40;97.60
60027;DHT22;45891;53.006;6.512;2023-07-16T08:42:19;20.90;97.20
60027;DHT22;45891;53.006;6.512;2023-07-16T08:44:48;21.00;96.80
60027;DHT22;45891;53.006;6.512;2023-07-16T08:47:16;20.60;96.80
60027;DHT22;45891;53.006;6.512;2023-07-16T08:49:53;21.30;96.50
60027;DHT22;45891;53.006;6.512;2023-07-16T08:52:22;21.80;96.30
60027;DHT22;45891;53.006;6.512;2023-07-16T08:54:48;22.20;95.50
60027;DHT22;45891;53.006;6.512;2023-07-16T08:57:14;22.30;95.60
60027;DHT22;45891;53.006;6.512;2023-07-16T08:59:41;22.70;94.90
60027;DHT22;45891;53.006;6.512;2023-07-16T09:02:07;22.50;95.20
60027;DHT22;45891;53.006;6.512;2023-07-16T09:04:33;22.70;95.50
60027;DHT22;45891;53.006;6.512;2023-07-16T09:06:59;22.40;95.50
60027;DHT22;45891;53.006;6.512;2023-07-16T09:09:26;22.20;94.90
60027;DHT22;45891;53.006;6.512;2023-07-16T09:11:52;21.60;95.50
60027;DHT22;45891;53.006;6.512;2023-07-16T09:14:19;21.50;95.80
60027;DHT22;45891;53.006;6.512;2023-07-16T09:16:52;21.40;95.70
60027;DHT22;45891;53.006;6.512;2023-07-16T09:19:18;20.90;96.10
60027;DHT22;45891;53.006;6.512;2023-07-16T09:21:48;20.60;96.50
60027;DHT22;45891;53.006;6.512;2023-07-16T09:24:14;20.50;96.80
60027;DHT22;45891;53.006;6.512;2023-07-16T09:26:54;20.50;96.90
60027;DHT22;45891;53.006;6.512;2023-07-16T09:29:25;20.30;97.20
60027;DHT22;45891;53.006;6.512;2023-07-16T09:31:59;20.60;96.90
60027;DHT22;45891;53.006;6.512;2023-07-16T09:34:29;20.80;96.80
60027;DHT22;45891;53.006;6.512;2023-07-16T09:37:00;20.80;96.90
60027;DHT22;45891;53.006;6.512;2023-07-16T09:39:27;20.90;96.70
60027;DHT22;45891;53.006;6.512;2023-07-16T09:41:54;20.80;96.70
60027;DHT22;45891;53.006;6.512;2023-07-16T09:44:23;21.00;96.60
60027;DHT22;45891;53.006;6.512;2023-07-16T09:46:49;21.10;96.40
60027;DHT22;45891;53.006;6.512;2023-07-16T09:49:16;20.80;96.50
60027;DHT22;45891;53.006;6.512;2023-07-16T09:51:43;20.90;96.70
60027;DHT22;45891;53.006;6.512;2023-07-16T09:54:13;20.90;96.00
60027;DHT22;45891;53.006;6.512;2023-07-16T09:56:52;20.90;96.30
60027;DHT22;45891;53.006;6.512;2023-07-16T09:59:22;21.00;96.20
60027;DHT22;45891;53.006;6.512;2023-07-16T10:01:50;21.00;96.30
60027;DHT22;45891;53.006;6.512;2023-07-16T10:04:18;21.10;96.20
60027;DHT22;45891;53.006;6.512;2023-07-16T10:06:55;21.20;96.00
60027;DHT22;45891;53.006;6.512;2023-07-16T10:09:39;21.00;96.10
60027;DHT22;45891;53.006;6.512;2023-07-16T10:12:17;20.90;96.20
60027;DHT22;45891;53.006;6.512;2023-07-16T10:14:55;20.80;96.70
60027;DHT22;45891;53.006;6.512;2023-07-16T10:17:25;21.10;96.50
60027;DHT22;45891;53.006;6.512;2023-07-16T10:20:07;21.30;96.30
60027;DHT22;45891;53.006;6.512;2023-07-16T10:22:46;21.40;96.00
60027;DHT22;45891;53.006;6.512;2023-07-16T10:27:50;21.90;95.70
60027;DHT22;45891;53.006;6.512;2023-07-16T10:30:16;22.00;95.70
60027;DHT22;45891;53.006;6.512;2023-07-16T10:32:43;21.80;95.80
60027;DHT22;45891;53.006;6.512;2023-07-16T10:35:10;21.70;95.30
60027;DHT22;45891;53.006;6.512;2023-07-16T10:37:37;21.50;96.00
60027;DHT22;45891;53.006;6.512;2023-07-16T10:40:05;21.30;95.60
60027;DHT22;45891;53.006;6.512;2023-07-16T10:42:35;21.50;95.90
60027;DHT22;45891;53.006;6.512;2023-07-16T10:45:03;21.50;95.80
60027;DHT22;45891;53.006;6.512;2023-07-16T10:49:58;21.10;95.50
60027;DHT22;45891;53.006;6.512;2023-07-16T10:52:25;20.90;95.70
60027;DHT22;45891;53.006;6.512;2023-07-16T10:54:52;20.90;96.00
60027;DHT22;45891;53.006;6.512;2023-07-16T10:57:27;21.00;96.20
60027;DHT22;45891;53.006;6.512;2023-07-16T10:59:55;21.10;96.20
60027;DHT22;45891;53.006;6.512;2023-07-16T11:02:23;21.20;96.20
60027;DHT22;45891;53.006;6.512;2023-07-16T11:04:50;21.50;95.90
60027;DHT22;45891;53.006;6.512;2023-07-16T11:07:16;21.70;95.70
60027;DHT22;45891;53.006;6.512;2023-07-16T11:09:50;21.50;95.60
60027;DHT22;45891;53.006;6.512;2023-07-16T11:12:18;21.40;95.70
60027;DHT22;45891;53.006;6.512;2023-07-16T11:14:47;21.40;95.50
60027;DHT22;45891;53.006;6.512;2023-07-16T11:17:14;21.20;95.40
60027;DHT22;45891;53.006;6.512;2023-07-16T11:19:41;21.20;96.00
60027;DHT22;45891;53.006;6.512;2023-07-16T11:22:10;21.30;95.80
60027;DHT22;45891;53.006;6.512;2023-07-16T11:24:41;21.50;95.90
60027;DHT22;45891;53.006;6.512;2023-07-16T11:27:27;21.60;95.80
60027;DHT22;45891;53.006;6.512;2023-07-16T11:29:57;21.40;96.00
60027;DHT22;45891;53.006;6.512;2023-07-16T11:35:02;21.20;96.00
60027;DHT22;45891;53.006;6.512;2023-07-16T11:37:30;21.00;96.30
60027;DHT22;45891;53.006;6.512;2023-07-16T11:44:54;20.70;96.80
60027;DHT22;45891;53.006;6.512;2023-07-16T11:47:21;20.70;96.90
60027;DHT22;45891;53.006;6.512;2023-07-16T11:49:48;20.60;97.80
60027;DHT22;45891;53.006;6.512;2023-07-16T11:52:19;20.50;97.90
60027;DHT22;45891;53.006;6.512;2023-07-16T11:54:46;20.50;97.40
60027;DHT22;45891;53.006;6.512;2023-07-16T11:57:12;20.60;97.30
60027;DHT22;45891;53.006;6.512;2023-07-16T11:59:38;20.70;97.20
60027;DHT22;45891;53.006;6.512;2023-07-16T12:02:04;20.70;97.00
60027;DHT22;45891;53.006;6.512;2023-07-16T12:04:30;21.00;96.90
60027;DHT22;45891;53.006;6.512;2023-07-16T12:06:56;21.00;97.00
60027;DHT22;45891;53.006;6.512;2023-07-16T12:09:22;20.90;97.00
60027;DHT22;45891;53.006;6.512;2023-07-16T12:11:49;21.00;97.00
60027;DHT22;45891;53.006;6.512;2023-07-16T12:14:15;21.00;97.10
60027;DHT22;45891;53.006;6.512;2023-07-16T12:16:41;21.10;96.90
60027;DHT22;45891;53.006;6.512;2023-07-16T12:19:09;21.30;96.90
60027;DHT22;45891;53.006;6.512;2023-07-16T12:21:36;22.20;96.20
60027;DHT22;45891;53.006;6.512;2023-07-16T12:24:02;22.10;96.00
60027;DHT22;45891;53.006;6.512;2023-07-16T12:26:28;21.90;95.80
60027;DHT22;45891;53.006;6.512;2023-07-16T12:28:54;21.40;96.20
60027;DHT22;45891;53.006;6.512;2023-07-16T12:31:21;21.10;96.60
60027;DHT22;45891;53.006;6.512;2023-07-16T12:33:47;20.80;99.00
60027;DHT22;45891;53.006;6.512;2023-07-16T12:36:14;19.90;99.90
60027;DHT22;45891;53.006;6.512;2023-07-16T12:38:41;19.40;99.90
60027;DHT22;45891;53.006;6.512;2023-07-16T12:41:07;19.50;99.90
60027;DHT22;45891;53.006;6.512;2023-07-16T12:43:34;19.90;99.90
60027;DHT22;45891;53.006;6.512;2023-07-16T12:46:01;19.70;99.90
60027;DHT22;45891;53.006;6.512;2023-07-16T12:48:29;19.80;99.90
60027;DHT22;45891;53.006;6.512;2023-07-16T12:50:56;19.70;99.90
60027;DHT22;45891;53.006;6.512;2023-07-16T12:53:23;19.70;99.90
60027;DHT22;45891;53.006;6.512;2023-07-16T12:55:49;19.60;99.90
60027;DHT22;45891;53.006;6.512;2023-07-16T12:58:15;19.50;99.90
60027;DHT22;45891;53.006;6.512;2023-07-16T13:00:42;19.40;99.90
60027;DHT22;45891;53.006;6.512;2023-07-16T13:03:08;19.60;99.90
60027;DHT22;45891;53.006;6.512;2023-07-16T13:05:40;19.80;99.90
60027;DHT22;45891;53.006;6.512;2023-07-16T13:08:07;20.10;99.90
60027;DHT22;45891;53.006;6.512;2023-07-16T13:10:33;20.30;99.90
60027;DHT22;45891;53.006;6.512;2023-07-16T13:12:59;20.20;99.90
60027;DHT22;45891;53.006;6.512;2023-07-16T13:15:26;20.20;99.90
60027;DHT22;45891;53.006;6.512;2023-07-16T13:17:53;20.00;99.90
60027;DHT22;45891;53.006;6.512;2023-07-16T13:20:20;19.90;99.90
60027;DHT22;45891;53.006;6.512;2023-07-16T13:22:46;19.80;99.90
60027;DHT22;45891;53.006;6.512;2023-07-16T13:25:12;19.70;99.90
60027;DHT22;45891;53.006;6.512;2023-07-16T13:27:38;19.40;99.90
60027;DHT22;45891;53.006;6.512;2023-07-16T13:30:06;19.10;99.90
60027;DHT22;45891;53.006;6.512;2023-07-16T13:32:32;19.10;99.90
60027;DHT22;45891;53.006;6.512;2023-07-16T13:34:59;19.10;99.90
60027;DHT22;45891;53.006;6.512;2023-07-16T13:37:25;19.40;99.90
60027;DHT22;45891;53.006;6.512;2023-07-16T13:39:51;19.80;99.90
60027;DHT22;45891;53.006;6.512;2023-07-16T13:42:17;20.20;99.90
60027;DHT22;45891;53.006;6.512;2023-07-16T13:44:44;21.00;99.90
60027;DHT22;45891;53.006;6.512;2023-07-16T13:47:10;21.40;99.90
60027;DHT22;45891;53.006;6.512;2023-07-16T13:49:36;21.30;99.90
60027;DHT22;45891;53.006;6.512;2023-07-16T13:52:02;21.20;99.90
60027;DHT22;45891;53.006;6.512;2023-07-16T13:54:28;21.20;99.90
60027;DHT22;45891;53.006;6.512;2023-07-16T13:56:55;21.20;99.90
60027;DHT22;45891;53.006;6.512;2023-07-16T13:59:21;21.20;99.90
60027;DHT22;45891;53.006;6.512;2023-07-16T14:01:47;21.70;99.70
60027;DHT22;45891;53.006;6.512;2023-07-16T14:04:13;22.20;98.90
60027;DHT22;45891;53.006;6.512;2023-07-16T14:06:39;22.60;99.00
60027;DHT22;45891;53.006;6.512;2023-07-16T14:09:05;22.40;98.40
60027;DHT22;45891;53.006;6.512;2023-07-16T14:11:31;22.30;98.40
60027;DHT22;45891;53.006;6.512;2023-07-16T14:13:57;22.00;98.20
60027;DHT22;45891;53.006;6.512;2023-07-16T14:16:24;21.80;97.80
60027;DHT22;45891;53.006;6.512;2023-07-16T14:18:52;21.60;96.40
60027;DHT22;45891;53.006;6.512;2023-07-16T14:21:19;21.50;96.80
60027;DHT22;45891;53.006;6.512;2023-07-16T14:23:46;22.20;96.20
60027;DHT22;45891;53.006;6.512;2023-07-16T14:26:12;22.80;96.60
60027;DHT22;45891;53.006;6.512;2023-07-16T14:28:38;23.10;95.80
60027;DHT22;45891;53.006;6.512;2023-07-16T14:31:04;22.80;95.50
60027;DHT22;45891;53.006;6.512;2023-07-16T14:33:30;22.30;95.30
60027;DHT22;45891;53.006;6.512;2023-07-16T14:35:57;22.60;95.20
60027;DHT22;45891;53.006;6.512;2023-07-16T14:38:23;23.00;95.20
60027;DHT22;45891;53.006;6.512;2023-07-16T14:40:50;23.30;94.40
60027;DHT22;45891;53.006;6.512;2023-07-16T14:43:18;22.90;94.80
60027;DHT22;45891;53.006;6.512;2023-07-16T14:45:44;22.80;94.80
60027;DHT22;45891;53.006;6.512;2023-07-16T14:48:11;22.50;94.40
60027;DHT22;45891;53.006;6.512;2023-07-16T14:50:37;22.30;94.50
60027;DHT22;45891;53.006;6.512;2023-07-16T14:53:04;22.30;94.80
60027;DHT22;45891;53.006;6.512;2023-07-16T14:55:30;22.70;94.40
60027;DHT22;45891;53.006;6.512;2023-07-16T14:57:57;22.90;94.30
60027;DHT22;45891;53.006;6.512;2023-07-16T15:00:23;22.90;94.60
60027;DHT22;45891;53.006;6.512;2023-07-16T15:02:49;22.90;94.50
60027;DHT22;45891;53.006;6.512;2023-07-16T15:05:15;22.80;94.20
60027;DHT22;45891;53.006;6.512;2023-07-16T15:07:42;22.60;94.00
60027;DHT22;45891;53.006;6.512;2023-07-16T15:10:08;22.20;94.00
60027;DHT22;45891;53.006;6.512;2023-07-16T15:12:35;22.30;94.10
60027;DHT22;45891;53.006;6.512;2023-07-16T15:15:01;22.50;93.80
60027;DHT22;45891;53.006;6.512;2023-07-16T15:17:27;22.80;93.70
60027;DHT22;45891;53.006;6.512;2023-07-16T15:19:53;23.00;93.20
60027;DHT22;45891;53.006;6.512;2023-07-16T15:22:19;22.80;93.50
60027;DHT22;45891;53.006;6.512;2023-07-16T15:24:47;22.50;93.70
60027;DHT22;45891;53.006;6.512;2023-07-16T15:27:13;22.20;93.80
60027;DHT22;45891;53.006;6.512;2023-07-16T15:29:39;22.10;94.10
60027;DHT22;45891;53.006;6.512;2023-07-16T15:32:06;22.30;93.70
60027;DHT22;45891;53.006;6.512;2023-07-16T15:34:32;22.70;93.90
60027;DHT22;45891;53.006;6.512;2023-07-16T15:36:58;22.50;93.80
60027;DHT22;45891;53.006;6.512;2023-07-16T15:39:24;22.30;93.90
60027;DHT22;45891;53.006;6.512;2023-07-16T15:41:51;22.00;94.10
60027;DHT22;45891;53.006;6.512;2023-07-16T15:44:17;21.90;94.20
60027;DHT22;45891;53.006;6.512;2023-07-16T15:46:43;21.70;94.30
60027;DHT22;45891;53.006;6.512;2023-07-16T15:49:10;21.50;94.40